sensor_id;sensor_type;location;lat;lon;timestamp;temperature;humidity
67641;SHT31;54434;50.096;20.082;2023-11-19T00:02:36;2.56;77.73
67641;SHT31;54434;50.096;20.082;2023-11-19T00:05:09;2.57;77.72
67641;SHT31;54434;50.096;20.082;2023-11-19T00:07:42;2.54;77.41
67641;SHT31;54434;50.096;20.082;2023-11-19T00:10:15;2.56;77.40
67641;SHT31;54434;50.096;20.082;2023-11-19T00:12:49;2.55;77.61
67641;SHT31;54434;50.096;20.082;2023-11-19T00:15:21;2.56;77.59
67641;SHT31;54434;50.096;20.082;2023-11-19T00:17:53;2.56;77.65
67641;SHT31;54434;50.096;20.082;2023-11-19T00:20:29;2.57;77.67
67641;SHT31;54434;50.096;20.082;2023-11-19T00:23:02;2.54;77.47
67641;SHT31;54434;50.096;20.082;2023-11-19T00:25:33;2.50;77.53
67641;SHT31;54434;50.096;20.082;2023-11-19T00:28:07;2.49;77.44
67641;SHT31;54434;50.096;20.082;2023-11-19T00:30:39;2.51;77.62
67641;SHT31;54434;50.096;20.082;2023-11-19T00:33:10;2.53;77.68
67641;SHT31;54434;50.096;20.082;2023-11-19T00:35:42;2.53;77.65
67641;SHT31;54434;50.096;20.082;2023-11-19T00:38:14;2.53;77.63
67641;SHT31;54434;50.096;20.082;2023-11-19T00:40:44;2.52;77.51
67641;SHT31;54434;50.096;20.082;2023-11-19T00:43:16;2.51;77.48
67641;SHT31;54434;50.096;20.082;2023-11-19T00:45:47;2.50;77.56
67641;SHT31;54434;50.096;20.082;2023-11-19T00:48:19;2.51;77.69
67641;SHT31;54434;50.096;20.082;2023-11-19T00:50:51;2.52;77.42
67641;SHT31;54434;50.096;20.082;2023-11-19T00:53:22;2.53;77.37
67641;SHT31;54434;50.096;20.082;2023-11-19T00:55:53;2.54;77.34
67641;SHT31;54434;50.096;20.082;2023-11-19T00:58:26;2.55;77.36
67641;SHT31;54434;50.096;20.082;2023-11-19T01:00:58;2.57;77.38
67641;SHT31;54434;50.096;20.082;2023-11-19T01:03:30;2.58;77.29
67641;SHT31;54434;50.096;20.082;2023-11-19T01:06:02;2.59;77.22
67641;SHT31;54434;50.096;20.082;2023-11-19T01:08:37;2.59;77.28
67641;SHT31;54434;50.096;20.082;2023-11-19T01:11:09;2.59;77.26
67641;SHT31;54434;50.096;20.082;2023-11-19T01:13:50;2.61;77.41
67641;SHT31;54434;50.096;20.082;2023-11-19T01:16:22;2.61;77.59
67641;SHT31;54434;50.096;20.082;2023-11-19T01:18:55;2.60;77.63
67641;SHT31;54434;50.096;20.082;2023-11-19T01:21:45;2.57;77.60
67641;SHT31;54434;50.096;20.082;2023-11-19T01:24:17;2.57;77.69
67641;SHT31;54434;50.096;20.082;2023-11-19T01:26:49;2.57;77.80
67641;SHT31;54434;50.096;20.082;2023-11-19T01:29:22;2.54;77.83
67641;SHT31;54434;50.096;20.082;2023-11-19T01:31:54;2.55;77.90
67641;SHT31;54434;50.096;20.082;2023-11-19T01:34:24;2.53;78.05
67641;SHT31;54434;50.096;20.082;2023-11-19T01:36:56;2.47;78.41
67641;SHT31;54434;50.096;20.082;2023-11-19T01:39:27;2.45;78.71
67641;SHT31;54434;50.096;20.082;2023-11-19T01:41:58;2.47;78.88
67641;SHT31;54434;50.096;20.082;2023-11-19T01:44:29;2.46;79.00
67641;SHT31;54434;50.096;20.082;2023-11-19T01:47:03;2.44;79.00
67641;SHT31;54434;50.096;20.082;2023-11-19T01:49:37;2.44;79.00
67641;SHT31;54434;50.096;20.082;2023-11-19T01:52:08;2.44;79.00
67641;SHT31;54434;50.096;20.082;2023-11-19T01:54:39;2.43;79.04
67641;SHT31;54434;50.096;20.082;2023-11-19T01:57:11;2.43;79.03
67641;SHT31;54434;50.096;20.082;2023-11-19T01:59:44;2.42;79.10
67641;SHT31;54434;50.096;20.082;2023-11-19T02:02:17;2.39;79.12
67641;SHT31;54434;50.096;20.082;2023-11-19T02:04:50;2.38;79.21
67641;SHT31;54434;50.096;20.082;2023-11-19T02:07:23;2.35;79.40
67641;SHT31;54434;50.096;20.082;2023-11-19T02:09:57;2.33;79.64
67641;SHT31;54434;50.096;20.082;2023-11-19T02:12:31;2.34;79.59
67641;SHT31;54434;50.096;20.082;2023-11-19T02:15:03;2.36;79.43
67641;SHT31;54434;50.096;20.082;2023-11-19T02:17:37;2.38;79.30
67641;SHT31;54434;50.096;20.082;2023-11-19T02:20:10;2.40;79.22
67641;SHT31;54434;50.096;20.082;2023-11-19T02:22:43;2.38;79.38
67641;SHT31;54434;50.096;20.082;2023-11-19T02:25:19;2.35;79.55
67641;SHT31;54434;50.096;20.082;2023-11-19T02:28:00;2.34;79.61
67641;SHT31;54434;50.096;20.082;2023-11-19T02:30:34;2.34;79.69
67641;SHT31;54434;50.096;20.082;2023-11-19T02:33:06;2.35;79.62
67641;SHT31;54434;50.096;20.082;2023-11-19T02:35:38;2.35;79.61
67641;SHT31;54434;50.096;20.082;2023-11-19T02:38:10;2.33;79.64
67641;SHT31;54434;50.096;20.082;2023-11-19T02:40:43;2.36;79.66
67641;SHT31;54434;50.096;20.082;2023-11-19T02:43:14;2.37;79.58
67641;SHT31;54434;50.096;20.082;2023-11-19T02:45:47;2.38;79.51
67641;SHT31;54434;50.096;20.082;2023-11-19T02:48:20;2.37;79.58
67641;SHT31;54434;50.096;20.082;2023-11-19T02:50:51;2.40;79.58
67641;SHT31;54434;50.096;20.082;2023-11-19T02:53:23;2.39;79.51
67641;SHT31;54434;50.096;20.082;2023-11-19T02:55:58;2.36;79.52
67641;SHT31;54434;50.096;20.082;2023-11-19T02:58:36;2.34;79.62
67641;SHT31;54434;50.096;20.082;2023-11-19T03:01:08;2.35;79.62
67641;SHT31;54434;50.096;20.082;2023-11-19T03:03:48;2.34;79.70
67641;SHT31;54434;50.096;20.082;2023-11-19T03:06:23;2.33;79.82
67641;SHT31;54434;50.096;20.082;2023-11-19T03:08:56;2.31;79.93
67641;SHT31;54434;50.096;20.082;2023-11-19T03:11:27;2.31;80.01
67641;SHT31;54434;50.096;20.082;2023-11-19T03:13:58;2.27;80.19
67641;SHT31;54434;50.096;20.082;2023-11-19T03:16:32;2.27;80.20
67641;SHT31;54434;50.096;20.082;2023-11-19T03:19:04;2.27;80.21
67641;SHT31;54434;50.096;20.082;2023-11-19T03:21:36;2.26;80.29
67641;SHT31;54434;50.096;20.082;2023-11-19T03:24:08;2.23;80.41
67641;SHT31;54434;50.096;20.082;2023-11-19T03:26:39;2.20;80.54
67641;SHT31;54434;50.096;20.082;2023-11-19T03:29:11;2.19;80.66
67641;SHT31;54434;50.096;20.082;2023-11-19T03:31:43;2.13;80.75
67641;SHT31;54434;50.096;20.082;2023-11-19T03:34:15;2.10;80.90
67641;SHT31;54434;50.096;20.082;2023-11-19T03:36:47;2.09;81.01
67641;SHT31;54434;50.096;20.082;2023-11-19T03:39:20;2.07;81.09
67641;SHT31;54434;50.096;20.082;2023-11-19T03:41:54;2.07;81.16
67641;SHT31;54434;50.096;20.082;2023-11-19T03:44:27;2.04;81.20
67641;SHT31;54434;50.096;20.082;2023-11-19T03:46:59;2.03;81.29
67641;SHT31;54434;50.096;20.082;2023-11-19T03:49:31;2.01;81.34
67641;SHT31;54434;50.096;20.082;2023-11-19T03:52:02;2.01;81.40
67641;SHT31;54434;50.096;20.082;2023-11-19T03:54:35;1.98;81.49
67641;SHT31;54434;50.096;20.082;2023-11-19T03:57:07;1.99;81.53
67641;SHT31;54434;50.096;20.082;2023-11-19T03:59:39;2.00;81.67
67641;SHT31;54434;50.096;20.082;2023-11-19T04:02:11;1.98;81.76
67641;SHT31;54434;50.096;20.082;2023-11-19T04:04:43;1.97;81.88
67641;SHT31;54434;50.096;20.082;2023-11-19T04:07:15;1.95;82.02
67641;SHT31;54434;50.096;20.082;2023-11-19T04:09:47;1.95;82.17
67641;SHT31;54434;50.096;20.082;2023-11-19T04:12:18;1.91;82.28
67641;SHT31;54434;50.096;20.082;2023-11-19T04:14:51;1.88;82.44
67641;SHT31;54434;50.096;20.082;2023-11-19T04:17:25;1.88;82.58
67641;SHT31;54434;50.096;20.082;2023-11-19T04:19:57;1.88;82.65
67641;SHT31;54434;50.096;20.082;2023-11-19T04:22:29;1.86;82.70
67641;SHT31;54434;50.096;20.082;2023-11-19T04:25:01;1.84;82.80
67641;SHT31;54434;50.096;20.082;2023-11-19T04:27:35;1.84;82.79
67641;SHT31;54434;50.096;20.082;2023-11-19T04:30:08;1.82;82.78
67641;SHT31;54434;50.096;20.082;2023-11-19T04:32:40;1.80;82.79
67641;SHT31;54434;50.096;20.082;2023-11-19T04:35:11;1.79;82.79
67641;SHT31;54434;50.096;20.082;2023-11-19T04:37:43;1.79;82.80
67641;SHT31;54434;50.096;20.082;2023-11-19T04:40:17;1.79;82.77
67641;SHT31;54434;50.096;20.082;2023-11-19T04:42:51;1.79;82.76
67641;SHT31;54434;50.096;20.082;2023-11-19T04:45:23;1.79;82.80
67641;SHT31;54434;50.096;20.082;2023-11-19T04:47:55;1.81;82.80
67641;SHT31;54434;50.096;20.082;2023-11-19T04:50:28;1.82;82.80
67641;SHT31;54434;50.096;20.082;2023-11-19T04:52:59;1.83;82.80
67641;SHT31;54434;50.096;20.082;2023-11-19T04:55:32;1.84;82.77
67641;SHT31;54434;50.096;20.082;2023-11-19T04:58:03;1.85;82.72
67641;SHT31;54434;50.096;20.082;2023-11-19T05:00:34;1.84;82.74
67641;SHT31;54434;50.096;20.082;2023-11-19T05:03:06;1.84;82.76
67641;SHT31;54434;50.096;20.082;2023-11-19T05:05:38;1.83;82.76
67641;SHT31;54434;50.096;20.082;2023-11-19T05:08:09;1.82;82.74
67641;SHT31;54434;50.096;20.082;2023-11-19T05:10:40;1.79;82.81
67641;SHT31;54434;50.096;20.082;2023-11-19T05:13:12;1.78;82.87
67641;SHT31;54434;50.096;20.082;2023-11-19T05:15:44;1.78;82.95
67641;SHT31;54434;50.096;20.082;2023-11-19T05:18:16;1.80;83.00
67641;SHT31;54434;50.096;20.082;2023-11-19T05:20:48;1.82;82.92
67641;SHT31;54434;50.096;20.082;2023-11-19T05:23:20;1.83;82.90
67641;SHT31;54434;50.096;20.082;2023-11-19T05:25:51;1.85;82.82
67641;SHT31;54434;50.096;20.082;2023-11-19T05:28:22;1.85;82.80
67641;SHT31;54434;50.096;20.082;2023-11-19T05:30:55;1.85;82.80
67641;SHT31;54434;50.096;20.082;2023-11-19T05:33:27;1.86;82.82
67641;SHT31;54434;50.096;20.082;2023-11-19T05:35:59;1.86;82.82
67641;SHT31;54434;50.096;20.082;2023-11-19T05:38:32;1.88;82.80
67641;SHT31;54434;50.096;20.082;2023-11-19T05:41:05;1.90;82.80
67641;SHT31;54434;50.096;20.082;2023-11-19T05:43:37;1.93;82.81
67641;SHT31;54434;50.096;20.082;2023-11-19T05:46:09;1.94;82.71
67641;SHT31;54434;50.096;20.082;2023-11-19T05:48:45;1.95;82.66
67641;SHT31;54434;50.096;20.082;2023-11-19T05:51:17;1.95;82.59
67641;SHT31;54434;50.096;20.082;2023-11-19T05:53:50;1.96;82.58
67641;SHT31;54434;50.096;20.082;2023-11-19T05:56:25;1.97;82.60
67641;SHT31;54434;50.096;20.082;2023-11-19T05:59:02;1.98;82.58
67641;SHT31;54434;50.096;20.082;2023-11-19T06:01:36;1.99;82.51
67641;SHT31;54434;50.096;20.082;2023-11-19T06:04:11;1.98;82.54
67641;SHT31;54434;50.096;20.082;2023-11-19T06:06:43;1.98;82.51
67641;SHT31;54434;50.096;20.082;2023-11-19T06:09:17;1.96;82.51
67641;SHT31;54434;50.096;20.082;2023-11-19T06:11:49;1.93;82.56
67641;SHT31;54434;50.096;20.082;2023-11-19T06:14:22;1.94;82.60
67641;SHT31;54434;50.096;20.082;2023-11-19T06:16:54;1.95;82.60
67641;SHT31;54434;50.096;20.082;2023-11-19T06:19:27;1.94;82.56
67641;SHT31;54434;50.096;20.082;2023-11-19T06:21:59;1.94;82.54
67641;SHT31;54434;50.096;20.082;2023-11-19T06:24:31;1.95;82.53
67641;SHT31;54434;50.096;20.082;2023-11-19T06:27:03;1.95;82.53
67641;SHT31;54434;50.096;20.082;2023-11-19T06:29:34;1.96;82.51
67641;SHT31;54434;50.096;20.082;2023-11-19T06:32:07;1.98;82.57
67641;SHT31;54434;50.096;20.082;2023-11-19T06:34:40;2.02;82.55
67641;SHT31;54434;50.096;20.082;2023-11-19T06:37:14;2.02;82.49
67641;SHT31;54434;50.096;20.082;2023-11-19T06:39:46;2.05;82.55
67641;SHT31;54434;50.096;20.082;2023-11-19T06:42:17;2.07;82.51
67641;SHT31;54434;50.096;20.082;2023-11-19T06:44:48;2.09;82.49
67641;SHT31;54434;50.096;20.082;2023-11-19T06:47:20;2.13;82.50
67641;SHT31;54434;50.096;20.082;2023-11-19T06:49:54;2.16;82.40
67641;SHT31;54434;50.096;20.082;2023-11-19T06:52:26;2.19;82.33
67641;SHT31;54434;50.096;20.082;2023-11-19T06:54:59;2.19;82.39
67641;SHT31;54434;50.096;20.082;2023-11-19T06:57:35;2.20;82.40
67641;SHT31;54434;50.096;20.082;2023-11-19T07:00:08;2.20;82.38
67641;SHT31;54434;50.096;20.082;2023-11-19T07:02:42;2.20;82.44
67641;SHT31;54434;50.096;20.082;2023-11-19T07:05:15;2.22;82.53
67641;SHT31;54434;50.096;20.082;2023-11-19T07:07:48;2.27;82.48
67641;SHT31;54434;50.096;20.082;2023-11-19T07:10:25;2.28;82.41
67641;SHT31;54434;50.096;20.082;2023-11-19T07:13:00;2.29;82.39
67641;SHT31;54434;50.096;20.082;2023-11-19T07:15:33;2.33;82.24
67641;SHT31;54434;50.096;20.082;2023-11-19T07:18:05;2.35;82.19
67641;SHT31;54434;50.096;20.082;2023-11-19T07:20:37;2.40;82.01
67641;SHT31;54434;50.096;20.082;2023-11-19T07:23:09;2.42;81.93
67641;SHT31;54434;50.096;20.082;2023-11-19T07:25:41;2.46;81.78
67641;SHT31;54434;50.096;20.082;2023-11-19T07:28:15;2.49;81.64
67641;SHT31;54434;50.096;20.082;2023-11-19T07:30:47;2.52;81.37
67641;SHT31;54434;50.096;20.082;2023-11-19T07:33:18;2.56;81.10
67641;SHT31;54434;50.096;20.082;2023-11-19T07:35:50;2.60;81.05
67641;SHT31;54434;50.096;20.082;2023-11-19T07:38:21;2.63;80.96
67641;SHT31;54434;50.096;20.082;2023-11-19T07:40:53;2.70;80.78
67641;SHT31;54434;50.096;20.082;2023-11-19T07:43:26;2.77;80.43
67641;SHT31;54434;50.096;20.082;2023-11-19T07:45:58;2.85;80.25
67641;SHT31;54434;50.096;20.082;2023-11-19T07:48:30;2.93;79.93
67641;SHT31;54434;50.096;20.082;2023-11-19T07:51:01;3.01;79.72
67641;SHT31;54434;50.096;20.082;2023-11-19T07:53:33;3.10;79.19
67641;SHT31;54434;50.096;20.082;2023-11-19T07:56:08;3.16;78.52
67641;SHT31;54434;50.096;20.082;2023-11-19T07:58:40;3.21;77.55
67641;SHT31;54434;50.096;20.082;2023-11-19T08:01:12;3.29;77.07
67641;SHT31;54434;50.096;20.082;2023-11-19T08:03:45;3.34;76.65
67641;SHT31;54434;50.096;20.082;2023-11-19T08:06:20;3.48;76.69
67641;SHT31;54434;50.096;20.082;2023-11-19T08:08:52;3.60;75.45
67641;SHT31;54434;50.096;20.082;2023-11-19T08:11:24;3.70;74.98
67641;SHT31;54434;50.096;20.082;2023-11-19T08:13:57;3.81;74.13
67641;SHT31;54434;50.096;20.082;2023-11-19T08:16:29;3.88;73.82
67641;SHT31;54434;50.096;20.082;2023-11-19T08:19:01;3.92;73.67
67641;SHT31;54434;50.096;20.082;2023-11-19T08:21:33;3.97;73.25
67641;SHT31;54434;50.096;20.082;2023-11-19T08:24:06;4.01;73.14
67641;SHT31;54434;50.096;20.082;2023-11-19T08:26:38;4.05;72.89
67641;SHT31;54434;50.096;20.082;2023-11-19T08:29:10;4.09;72.60
67641;SHT31;54434;50.096;20.082;2023-11-19T08:31:43;4.10;72.42
67641;SHT31;54434;50.096;20.082;2023-11-19T08:34:15;4.13;72.66
67641;SHT31;54434;50.096;20.082;2023-11-19T08:36:45;4.18;71.73
67641;SHT31;54434;50.096;20.082;2023-11-19T08:39:23;4.23;71.52
67641;SHT31;54434;50.096;20.082;2023-11-19T08:41:56;4.27;71.81
67641;SHT31;54434;50.096;20.082;2023-11-19T08:44:28;4.34;71.46
67641;SHT31;54434;50.096;20.082;2023-11-19T08:46:59;4.35;71.22
67641;SHT31;54434;50.096;20.082;2023-11-19T08:49:30;4.40;71.57
67641;SHT31;54434;50.096;20.082;2023-11-19T08:52:02;4.44;71.06
67641;SHT31;54434;50.096;20.082;2023-11-19T08:54:33;4.47;71.16
67641;SHT31;54434;50.096;20.082;2023-11-19T08:57:05;4.49;70.73
67641;SHT31;54434;50.096;20.082;2023-11-19T08:59:38;4.49;70.89
67641;SHT31;54434;50.096;20.082;2023-11-19T09:02:12;4.48;71.20
67641;SHT31;54434;50.096;20.082;2023-11-19T09:04:45;4.48;70.65
67641;SHT31;54434;50.096;20.082;2023-11-19T09:07:20;4.45;70.44
67641;SHT31;54434;50.096;20.082;2023-11-19T09:09:52;4.45;70.42
67641;SHT31;54434;50.096;20.082;2023-11-19T09:12:24;4.48;70.69
67641;SHT31;54434;50.096;20.082;2023-11-19T09:14:56;4.49;70.45
67641;SHT31;54434;50.096;20.082;2023-11-19T09:17:28;4.49;70.59
67641;SHT31;54434;50.096;20.082;2023-11-19T09:19:59;4.52;70.71
67641;SHT31;54434;50.096;20.082;2023-11-19T09:22:30;4.51;70.07
67641;SHT31;54434;50.096;20.082;2023-11-19T09:25:02;4.49;69.99
67641;SHT31;54434;50.096;20.082;2023-11-19T09:27:36;4.45;69.88
67641;SHT31;54434;50.096;20.082;2023-11-19T09:30:10;4.45;70.14
67641;SHT31;54434;50.096;20.082;2023-11-19T09:32:43;4.47;70.48
67641;SHT31;54434;50.096;20.082;2023-11-19T09:35:15;4.50;70.23
67641;SHT31;54434;50.096;20.082;2023-11-19T09:37:47;4.52;70.24
67641;SHT31;54434;50.096;20.082;2023-11-19T09:40:19;4.51;70.55
67641;SHT31;54434;50.096;20.082;2023-11-19T09:42:50;4.53;70.41
67641;SHT31;54434;50.096;20.082;2023-11-19T09:45:21;4.51;69.95
67641;SHT31;54434;50.096;20.082;2023-11-19T09:47:58;4.47;69.97
67641;SHT31;54434;50.096;20.082;2023-11-19T09:50:33;4.48;70.31
67641;SHT31;54434;50.096;20.082;2023-11-19T09:53:05;4.48;69.94
67641;SHT31;54434;50.096;20.082;2023-11-19T09:55:37;4.42;69.77
67641;SHT31;54434;50.096;20.082;2023-11-19T09:58:09;4.38;69.69
67641;SHT31;54434;50.096;20.082;2023-11-19T10:00:43;4.40;69.82
67641;SHT31;54434;50.096;20.082;2023-11-19T10:03:35;4.45;70.09
67641;SHT31;54434;50.096;20.082;2023-11-19T10:06:09;4.49;69.68
67641;SHT31;54434;50.096;20.082;2023-11-19T10:08:42;4.53;69.98
67641;SHT31;54434;50.096;20.082;2023-11-19T10:11:14;4.63;70.10
67641;SHT31;54434;50.096;20.082;2023-11-19T10:13:47;4.73;69.92
67641;SHT31;54434;50.096;20.082;2023-11-19T10:16:20;4.80;69.25
67641;SHT31;54434;50.096;20.082;2023-11-19T10:19:00;4.83;69.13
67641;SHT31;54434;50.096;20.082;2023-11-19T10:21:34;4.92;69.14
67641;SHT31;54434;50.096;20.082;2023-11-19T10:24:06;5.04;69.54
67641;SHT31;54434;50.096;20.082;2023-11-19T10:26:39;5.13;68.99
67641;SHT31;54434;50.096;20.082;2023-11-19T10:29:14;5.22;69.32
67641;SHT31;54434;50.096;20.082;2023-11-19T10:31:56;5.38;69.21
67641;SHT31;54434;50.096;20.082;2023-11-19T10:34:48;5.52;68.36
67641;SHT31;54434;50.096;20.082;2023-11-19T10:37:29;5.55;68.21
67641;SHT31;54434;50.096;20.082;2023-11-19T10:40:17;5.57;68.13
67641;SHT31;54434;50.096;20.082;2023-11-19T10:43:03;5.55;67.90
67641;SHT31;54434;50.096;20.082;2023-11-19T10:45:36;5.57;67.72
67641;SHT31;54434;50.096;20.082;2023-11-19T10:48:09;5.56;67.50
67641;SHT31;54434;50.096;20.082;2023-11-19T10:50:43;5.53;67.98
67641;SHT31;54434;50.096;20.082;2023-11-19T10:53:19;5.58;67.97
67641;SHT31;54434;50.096;20.082;2023-11-19T10:55:55;5.61;67.81
67641;SHT31;54434;50.096;20.082;2023-11-19T10:58:32;5.67;68.26
67641;SHT31;54434;50.096;20.082;2023-11-19T11:01:09;5.74;68.15
67641;SHT31;54434;50.096;20.082;2023-11-19T11:03:46;5.78;67.89
67641;SHT31;54434;50.096;20.082;2023-11-19T11:06:26;5.74;67.55
67641;SHT31;54434;50.096;20.082;2023-11-19T11:08:59;5.71;67.31
67641;SHT31;54434;50.096;20.082;2023-11-19T11:11:33;5.69;67.52
67641;SHT31;54434;50.096;20.082;2023-11-19T11:14:07;5.65;67.39
67641;SHT31;54434;50.096;20.082;2023-11-19T11:16:43;5.61;67.71
67641;SHT31;54434;50.096;20.082;2023-11-19T11:19:16;5.62;67.95
67641;SHT31;54434;50.096;20.082;2023-11-19T11:21:50;5.57;67.45
67641;SHT31;54434;50.096;20.082;2023-11-19T11:24:37;5.54;67.91
67641;SHT31;54434;50.096;20.082;2023-11-19T11:27:51;5.56;67.97
67641;SHT31;54434;50.096;20.082;2023-11-19T11:30:46;5.59;68.10
67641;SHT31;54434;50.096;20.082;2023-11-19T11:33:44;5.61;68.23
67641;SHT31;54434;50.096;20.082;2023-11-19T11:36:49;5.61;68.47
67641;SHT31;54434;50.096;20.082;2023-11-19T11:39:36;5.58;68.38
67641;SHT31;54434;50.096;20.082;2023-11-19T11:42:34;5.54;68.07
67641;SHT31;54434;50.096;20.082;2023-11-19T11:45:09;5.49;68.71
67641;SHT31;54434;50.096;20.082;2023-11-19T11:50:57;5.48;68.44
67641;SHT31;54434;50.096;20.082;2023-11-19T11:53:29;5.46;68.44
67641;SHT31;54434;50.096;20.082;2023-11-19T11:56:07;5.43;68.56
67641;SHT31;54434;50.096;20.082;2023-11-19T11:58:39;5.43;68.95
67641;SHT31;54434;50.096;20.082;2023-11-19T12:01:15;5.41;68.57
67641;SHT31;54434;50.096;20.082;2023-11-19T12:03:49;5.38;68.65
67641;SHT31;54434;50.096;20.082;2023-11-19T12:06:27;5.36;69.07
67641;SHT31;54434;50.096;20.082;2023-11-19T12:09:02;5.35;69.53
67641;SHT31;54434;50.096;20.082;2023-11-19T12:11:36;5.35;70.23
67641;SHT31;54434;50.096;20.082;2023-11-19T12:14:07;5.33;69.60
67641;SHT31;54434;50.096;20.082;2023-11-19T12:16:38;5.30;70.08
67641;SHT31;54434;50.096;20.082;2023-11-19T12:19:12;5.28;70.51
67641;SHT31;54434;50.096;20.082;2023-11-19T12:21:44;5.22;71.24
67641;SHT31;54434;50.096;20.082;2023-11-19T12:24:15;5.17;71.84
67641;SHT31;54434;50.096;20.082;2023-11-19T12:26:50;5.09;71.85
67641;SHT31;54434;50.096;20.082;2023-11-19T12:29:23;5.00;72.55
67641;SHT31;54434;50.096;20.082;2023-11-19T12:31:55;4.93;72.51
67641;SHT31;54434;50.096;20.082;2023-11-19T12:34:34;4.87;72.77
67641;SHT31;54434;50.096;20.082;2023-11-19T12:37:09;4.81;73.20
67641;SHT31;54434;50.096;20.082;2023-11-19T12:39:41;4.76;73.19
67641;SHT31;54434;50.096;20.082;2023-11-19T12:42:15;4.67;73.56
67641;SHT31;54434;50.096;20.082;2023-11-19T12:44:55;4.60;73.74
67641;SHT31;54434;50.096;20.082;2023-11-19T12:47:27;4.52;74.20
67641;SHT31;54434;50.096;20.082;2023-11-19T12:49:59;4.47;74.58
67641;SHT31;54434;50.096;20.082;2023-11-19T12:52:30;4.41;74.63
67641;SHT31;54434;50.096;20.082;2023-11-19T12:55:02;4.31;74.73
67641;SHT31;54434;50.096;20.082;2023-11-19T12:57:39;4.22;75.14
67641;SHT31;54434;50.096;20.082;2023-11-19T13:00:20;4.14;75.19
67641;SHT31;54434;50.096;20.082;2023-11-19T13:02:54;4.14;75.45
67641;SHT31;54434;50.096;20.082;2023-11-19T13:05:28;4.13;75.73
67641;SHT31;54434;50.096;20.082;2023-11-19T13:08:03;4.12;75.81
67641;SHT31;54434;50.096;20.082;2023-11-19T13:10:51;4.12;76.13
67641;SHT31;54434;50.096;20.082;2023-11-19T13:13:26;4.11;76.52
67641;SHT31;54434;50.096;20.082;2023-11-19T13:16:03;4.13;76.73
67641;SHT31;54434;50.096;20.082;2023-11-19T13:18:38;4.11;76.73
67641;SHT31;54434;50.096;20.082;2023-11-19T13:21:14;4.08;77.10
67641;SHT31;54434;50.096;20.082;2023-11-19T13:23:45;4.06;77.52
67641;SHT31;54434;50.096;20.082;2023-11-19T13:26:16;4.05;77.78
67641;SHT31;54434;50.096;20.082;2023-11-19T13:28:48;4.03;77.90
67641;SHT31;54434;50.096;20.082;2023-11-19T13:31:20;4.00;77.86
67641;SHT31;54434;50.096;20.082;2023-11-19T13:33:52;3.99;78.03
67641;SHT31;54434;50.096;20.082;2023-11-19T13:36:26;3.99;78.20
67641;SHT31;54434;50.096;20.082;2023-11-19T13:38:58;4.00;78.33
67641;SHT31;54434;50.096;20.082;2023-11-19T13:41:32;4.01;78.50
67641;SHT31;54434;50.096;20.082;2023-11-19T13:44:05;4.00;78.60
67641;SHT31;54434;50.096;20.082;2023-11-19T13:46:37;3.97;78.75
67641;SHT31;54434;50.096;20.082;2023-11-19T13:49:09;3.98;79.01
67641;SHT31;54434;50.096;20.082;2023-11-19T13:51:42;3.96;79.01
67641;SHT31;54434;50.096;20.082;2023-11-19T13:54:14;3.95;79.20
67641;SHT31;54434;50.096;20.082;2023-11-19T13:56:48;3.94;79.22
67641;SHT31;54434;50.096;20.082;2023-11-19T13:59:24;3.91;79.39
67641;SHT31;54434;50.096;20.082;2023-11-19T14:01:56;3.90;79.43
67641;SHT31;54434;50.096;20.082;2023-11-19T14:04:27;3.88;79.51
67641;SHT31;54434;50.096;20.082;2023-11-19T14:06:59;3.88;79.52
67641;SHT31;54434;50.096;20.082;2023-11-19T14:09:32;3.87;79.49
67641;SHT31;54434;50.096;20.082;2023-11-19T14:12:05;3.85;79.70
67641;SHT31;54434;50.096;20.082;2023-11-19T14:14:38;3.84;79.65
67641;SHT31;54434;50.096;20.082;2023-11-19T14:17:11;3.85;79.94
67641;SHT31;54434;50.096;20.082;2023-11-19T14:19:44;3.86;80.04
67641;SHT31;54434;50.096;20.082;2023-11-19T14:22:16;3.83;80.05
67641;SHT31;54434;50.096;20.082;2023-11-19T14:24:48;3.83;80.06
67641;SHT31;54434;50.096;20.082;2023-11-19T14:27:19;3.82;79.94
67641;SHT31;54434;50.096;20.082;2023-11-19T14:29:51;3.82;80.00
67641;SHT31;54434;50.096;20.082;2023-11-19T14:32:23;3.82;80.13
67641;SHT31;54434;50.096;20.082;2023-11-19T14:34:54;3.82;80.32
67641;SHT31;54434;50.096;20.082;2023-11-19T14:37:26;3.80;80.52
67641;SHT31;54434;50.096;20.082;2023-11-19T14:39:58;3.77;80.57
67641;SHT31;54434;50.096;20.082;2023-11-19T14:42:33;3.73;80.74
67641;SHT31;54434;50.096;20.082;2023-11-19T14:45:08;3.75;80.97
67641;SHT31;54434;50.096;20.082;2023-11-19T14:47:41;3.77;80.77
67641;SHT31;54434;50.096;20.082;2023-11-19T14:50:13;3.77;80.72
67641;SHT31;54434;50.096;20.082;2023-11-19T14:52:44;3.76;80.81
67641;SHT31;54434;50.096;20.082;2023-11-19T14:55:16;3.76;80.85
67641;SHT31;54434;50.096;20.082;2023-11-19T14:57:48;3.76;80.93
67641;SHT31;54434;50.096;20.082;2023-11-19T15:00:34;3.81;81.06
67641;SHT31;54434;50.096;20.082;2023-11-19T15:03:07;3.82;81.09
67641;SHT31;54434;50.096;20.082;2023-11-19T15:05:40;3.81;81.07
67641;SHT31;54434;50.096;20.082;2023-11-19T15:08:12;3.79;81.24
67641;SHT31;54434;50.096;20.082;2023-11-19T15:10:45;3.76;81.28
67641;SHT31;54434;50.096;20.082;2023-11-19T15:13:17;3.75;81.38
67641;SHT31;54434;50.096;20.082;2023-11-19T15:15:49;3.74;81.38
67641;SHT31;54434;50.096;20.082;2023-11-19T15:18:21;3.72;81.45
67641;SHT31;54434;50.096;20.082;2023-11-19T15:20:53;3.68;81.49
67641;SHT31;54434;50.096;20.082;2023-11-19T15:23:25;3.67;81.61
67641;SHT31;54434;50.096;20.082;2023-11-19T15:25:58;3.66;81.70
67641;SHT31;54434;50.096;20.082;2023-11-19T15:28:30;3.67;81.79
67641;SHT31;54434;50.096;20.082;2023-11-19T15:31:02;3.66;81.87
67641;SHT31;54434;50.096;20.082;2023-11-19T15:33:35;3.64;82.02
67641;SHT31;54434;50.096;20.082;2023-11-19T15:36:09;3.63;82.08
67641;SHT31;54434;50.096;20.082;2023-11-19T15:38:41;3.62;82.19
67641;SHT31;54434;50.096;20.082;2023-11-19T15:41:16;3.62;82.20
67641;SHT31;54434;50.096;20.082;2023-11-19T15:43:50;3.61;82.30
67641;SHT31;54434;50.096;20.082;2023-11-19T15:46:22;3.60;82.35
67641;SHT31;54434;50.096;20.082;2023-11-19T15:48:52;3.62;82.46
67641;SHT31;54434;50.096;20.082;2023-11-19T15:51:24;3.63;82.47
67641;SHT31;54434;50.096;20.082;2023-11-19T15:53:56;3.65;82.59
67641;SHT31;54434;50.096;20.082;2023-11-19T15:56:28;3.68;82.67
67641;SHT31;54434;50.096;20.082;2023-11-19T15:59:00;3.70;82.69
67641;SHT31;54434;50.096;20.082;2023-11-19T16:01:34;3.72;82.65
67641;SHT31;54434;50.096;20.082;2023-11-19T16:04:06;3.73;82.72
67641;SHT31;54434;50.096;20.082;2023-11-19T16:06:38;3.74;82.80
67641;SHT31;54434;50.096;20.082;2023-11-19T16:09:10;3.75;82.74
67641;SHT31;54434;50.096;20.082;2023-11-19T16:11:44;3.74;82.79
67641;SHT31;54434;50.096;20.082;2023-11-19T16:14:25;3.75;82.86